Douglass, Kansas
Current Conditions -  °F | °C
As of 10:33 AM on Thursday 23 Oct 2014 (Local Time) from KIAB Reporting Station
Overcast Overcast  
Wind Chill: 64°   Ceiling: 800
Heat Index: 64°   Visibility: 10mi
Dew Point: 64°   Wind: 10mph
Humidity: 100%   Direction: 170°S
Pressure: 30.12"   Gusts: NA
Location:  37.52°N, 97.01°W
Report Text: KIAB 231533Z AUTO 17009KT 10SM OVC008 18/18 A3012 RMK AO2
Loading
Personal Weather Stations






























Interactive Weather Map
Tropical Storm Tracking
New forecast layout! Learn more

10-Day Weather Forecast

Advertisements
Track Severe Weather on mobile